sensor_id;sensor_type;location;lat;lon;timestamp;P1;durP1;ratioP1;P2;durP2;ratioP2
9729;SDS011;4904;49.152;11.004;2024-03-07T00:02:04;22.67;;;18.27;;
9729;SDS011;4904;49.152;11.004;2024-03-07T00:04:33;23.15;;;17.77;;
9729;SDS011;4904;49.152;11.004;2024-03-07T00:07:01;22.02;;;18.55;;
9729;SDS011;4904;49.152;11.004;2024-03-07T00:09:28;21.73;;;18.02;;
9729;SDS011;4904;49.152;11.004;2024-03-07T00:11:56;22.15;;;17.85;;
9729;SDS011;4904;49.152;11.004;2024-03-07T00:14:23;21.38;;;17.35;;
9729;SDS011;4904;49.152;11.004;2024-03-07T00:16:52;23.27;;;18.10;;
9729;SDS011;4904;49.152;11.004;2024-03-07T00:19:19;24.67;;;18.08;;
9729;SDS011;4904;49.152;11.004;2024-03-07T00:21:47;23.27;;;17.98;;
9729;SDS011;4904;49.152;11.004;2024-03-07T00:24:14;26.65;;;17.85;;
9729;SDS011;4904;49.152;11.004;2024-03-07T00:26:41;21.85;;;17.25;;
9729;SDS011;4904;49.152;11.004;2024-03-07T00:29:08;21.27;;;17.45;;
9729;SDS011;4904;49.152;11.004;2024-03-07T00:31:35;21.63;;;16.55;;
9729;SDS011;4904;49.152;11.004;2024-03-07T00:34:02;24.13;;;18.10;;
9729;SDS011;4904;49.152;11.004;2024-03-07T00:36:29;23.48;;;16.45;;
9729;SDS011;4904;49.152;11.004;2024-03-07T00:38:58;21.95;;;16.95;;
9729;SDS011;4904;49.152;11.004;2024-03-07T00:41:25;21.33;;;17.20;;
9729;SDS011;4904;49.152;11.004;2024-03-07T00:43:52;21.63;;;17.42;;
9729;SDS011;4904;49.152;11.004;2024-03-07T00:46:18;22.92;;;17.52;;
9729;SDS011;4904;49.152;11.004;2024-03-07T00:48:45;21.08;;;16.27;;
9729;SDS011;4904;49.152;11.004;2024-03-07T00:51:12;20.45;;;16.30;;
9729;SDS011;4904;49.152;11.004;2024-03-07T00:53:40;21.05;;;16.40;;
9729;SDS011;4904;49.152;11.004;2024-03-07T00:56:08;20.67;;;16.23;;
9729;SDS011;4904;49.152;11.004;2024-03-07T00:58:35;24.00;;;15.98;;
9729;SDS011;4904;49.152;11.004;2024-03-07T01:01:02;21.58;;;16.38;;
9729;SDS011;4904;49.152;11.004;2024-03-07T01:03:29;24.80;;;15.85;;
9729;SDS011;4904;49.152;11.004;2024-03-07T01:05:56;21.52;;;15.80;;
9729;SDS011;4904;49.152;11.004;2024-03-07T01:08:23;20.77;;;15.48;;
9729;SDS011;4904;49.152;11.004;2024-03-07T01:10:50;19.80;;;15.20;;
9729;SDS011;4904;49.152;11.004;2024-03-07T01:13:19;20.35;;;15.63;;
9729;SDS011;4904;49.152;11.004;2024-03-07T01:15:47;18.23;;;14.85;;
9729;SDS011;4904;49.152;11.004;2024-03-07T01:18:15;16.95;;;14.32;;
9729;SDS011;4904;49.152;11.004;2024-03-07T01:20:42;17.55;;;14.75;;
9729;SDS011;4904;49.152;11.004;2024-03-07T01:23:09;19.15;;;14.35;;
9729;SDS011;4904;49.152;11.004;2024-03-07T01:25:36;17.85;;;14.23;;
9729;SDS011;4904;49.152;11.004;2024-03-07T01:28:03;17.27;;;13.70;;
9729;SDS011;4904;49.152;11.004;2024-03-07T01:30:31;18.70;;;13.85;;
9729;SDS011;4904;49.152;11.004;2024-03-07T01:32:58;20.52;;;14.45;;
9729;SDS011;4904;49.152;11.004;2024-03-07T01:35:25;17.58;;;14.38;;
9729;SDS011;4904;49.152;11.004;2024-03-07T01:37:52;18.75;;;13.85;;
9729;SDS011;4904;49.152;11.004;2024-03-07T01:40:19;19.17;;;13.95;;
9729;SDS011;4904;49.152;11.004;2024-03-07T01:42:47;17.17;;;14.20;;
9729;SDS011;4904;49.152;11.004;2024-03-07T01:45:15;16.88;;;14.27;;
9729;SDS011;4904;49.152;11.004;2024-03-07T01:47:44;16.83;;;13.43;;
9729;SDS011;4904;49.152;11.004;2024-03-07T01:50:11;16.70;;;13.63;;
9729;SDS011;4904;49.152;11.004;2024-03-07T01:52:39;17.42;;;14.25;;
9729;SDS011;4904;49.152;11.004;2024-03-07T01:55:07;16.23;;;13.40;;
9729;SDS011;4904;49.152;11.004;2024-03-07T01:57:35;17.13;;;13.75;;
9729;SDS011;4904;49.152;11.004;2024-03-07T02:00:02;18.15;;;14.55;;
9729;SDS011;4904;49.152;11.004;2024-03-07T02:02:31;18.17;;;14.13;;
9729;SDS011;4904;49.152;11.004;2024-03-07T02:05:00;17.33;;;13.00;;
9729;SDS011;4904;49.152;11.004;2024-03-07T02:07:27;16.17;;;13.82;;
9729;SDS011;4904;49.152;11.004;2024-03-07T02:10:00;17.23;;;13.48;;
9729;SDS011;4904;49.152;11.004;2024-03-07T02:12:28;16.52;;;13.57;;
9729;SDS011;4904;49.152;11.004;2024-03-07T02:14:55;17.25;;;13.48;;
9729;SDS011;4904;49.152;11.004;2024-03-07T02:17:22;17.67;;;14.20;;
9729;SDS011;4904;49.152;11.004;2024-03-07T02:19:50;16.45;;;12.40;;
9729;SDS011;4904;49.152;11.004;2024-03-07T02:22:18;16.17;;;12.90;;
9729;SDS011;4904;49.152;11.004;2024-03-07T02:24:45;17.55;;;13.40;;
9729;SDS011;4904;49.152;11.004;2024-03-07T02:27:12;16.85;;;13.07;;
9729;SDS011;4904;49.152;11.004;2024-03-07T02:29:40;18.95;;;13.40;;
9729;SDS011;4904;49.152;11.004;2024-03-07T02:32:07;16.02;;;13.20;;
9729;SDS011;4904;49.152;11.004;2024-03-07T02:34:34;19.55;;;13.50;;
9729;SDS011;4904;49.152;11.004;2024-03-07T02:37:01;17.15;;;13.45;;
9729;SDS011;4904;49.152;11.004;2024-03-07T02:39:30;17.88;;;12.80;;
9729;SDS011;4904;49.152;11.004;2024-03-07T02:41:56;17.20;;;13.32;;
9729;SDS011;4904;49.152;11.004;2024-03-07T02:44:23;16.45;;;13.25;;
9729;SDS011;4904;49.152;11.004;2024-03-07T02:46:50;18.10;;;13.80;;
9729;SDS011;4904;49.152;11.004;2024-03-07T02:49:17;16.75;;;13.93;;
9729;SDS011;4904;49.152;11.004;2024-03-07T02:51:46;17.05;;;14.00;;
9729;SDS011;4904;49.152;11.004;2024-03-07T02:54:13;18.05;;;14.20;;
9729;SDS011;4904;49.152;11.004;2024-03-07T02:56:41;16.63;;;13.82;;
9729;SDS011;4904;49.152;11.004;2024-03-07T02:59:08;15.68;;;13.00;;
9729;SDS011;4904;49.152;11.004;2024-03-07T03:01:35;15.60;;;13.15;;
9729;SDS011;4904;49.152;11.004;2024-03-07T03:04:02;18.30;;;14.57;;
9729;SDS011;4904;49.152;11.004;2024-03-07T03:06:29;15.65;;;13.88;;
9729;SDS011;4904;49.152;11.004;2024-03-07T03:08:56;18.70;;;14.00;;
9729;SDS011;4904;49.152;11.004;2024-03-07T03:11:23;16.65;;;13.75;;
9729;SDS011;4904;49.152;11.004;2024-03-07T03:13:52;17.23;;;14.35;;
9729;SDS011;4904;49.152;11.004;2024-03-07T03:16:19;18.85;;;14.80;;
9729;SDS011;4904;49.152;11.004;2024-03-07T03:18:46;17.48;;;14.60;;
9729;SDS011;4904;49.152;11.004;2024-03-07T03:21:14;17.40;;;14.30;;
9729;SDS011;4904;49.152;11.004;2024-03-07T03:23:42;20.70;;;14.05;;
9729;SDS011;4904;49.152;11.004;2024-03-07T03:26:09;23.55;;;14.70;;
9729;SDS011;4904;49.152;11.004;2024-03-07T03:28:36;19.77;;;14.95;;
9729;SDS011;4904;49.152;11.004;2024-03-07T03:31:08;18.92;;;14.18;;
9729;SDS011;4904;49.152;11.004;2024-03-07T03:33:35;17.88;;;14.80;;
9729;SDS011;4904;49.152;11.004;2024-03-07T03:36:02;20.02;;;14.95;;
9729;SDS011;4904;49.152;11.004;2024-03-07T03:38:29;20.20;;;14.15;;
9729;SDS011;4904;49.152;11.004;2024-03-07T03:40:56;19.60;;;14.40;;
9729;SDS011;4904;49.152;11.004;2024-03-07T03:43:23;22.48;;;15.27;;
9729;SDS011;4904;49.152;11.004;2024-03-07T03:45:50;22.63;;;14.98;;
9729;SDS011;4904;49.152;11.004;2024-03-07T03:48:18;19.08;;;14.80;;
9729;SDS011;4904;49.152;11.004;2024-03-07T03:50:45;21.42;;;14.48;;
9729;SDS011;4904;49.152;11.004;2024-03-07T03:53:12;20.52;;;14.70;;
9729;SDS011;4904;49.152;11.004;2024-03-07T03:55:39;19.13;;;14.15;;
9729;SDS011;4904;49.152;11.004;2024-03-07T03:58:06;24.25;;;14.95;;
9729;SDS011;4904;49.152;11.004;2024-03-07T04:00:34;20.70;;;14.85;;
9729;SDS011;4904;49.152;11.004;2024-03-07T04:03:01;18.17;;;14.80;;
9729;SDS011;4904;49.152;11.004;2024-03-07T04:05:29;20.33;;;15.48;;
9729;SDS011;4904;49.152;11.004;2024-03-07T04:07:56;19.02;;;15.13;;
9729;SDS011;4904;49.152;11.004;2024-03-07T04:10:23;18.85;;;14.98;;
9729;SDS011;4904;49.152;11.004;2024-03-07T04:12:50;19.65;;;15.15;;
9729;SDS011;4904;49.152;11.004;2024-03-07T04:15:17;18.52;;;13.88;;
9729;SDS011;4904;49.152;11.004;2024-03-07T04:17:44;17.20;;;14.45;;
9729;SDS011;4904;49.152;11.004;2024-03-07T04:20:11;17.88;;;14.15;;
9729;SDS011;4904;49.152;11.004;2024-03-07T04:22:40;17.67;;;14.38;;
9729;SDS011;4904;49.152;11.004;2024-03-07T04:25:07;17.67;;;13.93;;
9729;SDS011;4904;49.152;11.004;2024-03-07T04:27:35;16.73;;;13.57;;
9729;SDS011;4904;49.152;11.004;2024-03-07T04:30:05;15.43;;;12.80;;
9729;SDS011;4904;49.152;11.004;2024-03-07T04:32:34;14.50;;;11.80;;
9729;SDS011;4904;49.152;11.004;2024-03-07T04:35:02;16.67;;;11.80;;
9729;SDS011;4904;49.152;11.004;2024-03-07T04:37:32;16.83;;;12.52;;
9729;SDS011;4904;49.152;11.004;2024-03-07T04:40:03;17.42;;;12.48;;
9729;SDS011;4904;49.152;11.004;2024-03-07T04:42:40;14.90;;;11.57;;
9729;SDS011;4904;49.152;11.004;2024-03-07T04:45:07;15.75;;;12.50;;
9729;SDS011;4904;49.152;11.004;2024-03-07T04:47:36;18.20;;;13.80;;
9729;SDS011;4904;49.152;11.004;2024-03-07T04:50:03;19.45;;;13.27;;
9729;SDS011;4904;49.152;11.004;2024-03-07T04:52:31;16.80;;;13.30;;
9729;SDS011;4904;49.152;11.004;2024-03-07T04:54:58;19.23;;;14.82;;
9729;SDS011;4904;49.152;11.004;2024-03-07T04:57:26;19.08;;;14.27;;
9729;SDS011;4904;49.152;11.004;2024-03-07T04:59:53;15.85;;;13.20;;
9729;SDS011;4904;49.152;11.004;2024-03-07T05:02:20;17.38;;;13.85;;
9729;SDS011;4904;49.152;11.004;2024-03-07T05:04:47;18.77;;;14.15;;
9729;SDS011;4904;49.152;11.004;2024-03-07T05:07:17;19.13;;;15.52;;
9729;SDS011;4904;49.152;11.004;2024-03-07T05:09:46;20.30;;;14.82;;
9729;SDS011;4904;49.152;11.004;2024-03-07T05:12:13;19.88;;;15.93;;
9729;SDS011;4904;49.152;11.004;2024-03-07T05:14:42;22.13;;;16.63;;
9729;SDS011;4904;49.152;11.004;2024-03-07T05:17:09;21.80;;;16.70;;
9729;SDS011;4904;49.152;11.004;2024-03-07T05:19:37;19.70;;;15.73;;
9729;SDS011;4904;49.152;11.004;2024-03-07T05:22:04;18.13;;;14.70;;
9729;SDS011;4904;49.152;11.004;2024-03-07T05:24:31;20.63;;;15.82;;
9729;SDS011;4904;49.152;11.004;2024-03-07T05:26:59;17.33;;;12.85;;
9729;SDS011;4904;49.152;11.004;2024-03-07T05:29:26;19.08;;;15.93;;
9729;SDS011;4904;49.152;11.004;2024-03-07T05:31:54;19.00;;;15.43;;
9729;SDS011;4904;49.152;11.004;2024-03-07T05:34:21;22.38;;;16.92;;
9729;SDS011;4904;49.152;11.004;2024-03-07T05:36:48;22.02;;;16.73;;
9729;SDS011;4904;49.152;11.004;2024-03-07T05:39:15;19.42;;;16.02;;
9729;SDS011;4904;49.152;11.004;2024-03-07T05:41:43;22.25;;;16.08;;
9729;SDS011;4904;49.152;11.004;2024-03-07T05:44:11;21.85;;;16.45;;
9729;SDS011;4904;49.152;11.004;2024-03-07T05:46:38;20.23;;;14.75;;
9729;SDS011;4904;49.152;11.004;2024-03-07T05:49:12;19.13;;;15.13;;
9729;SDS011;4904;49.152;11.004;2024-03-07T05:51:39;20.75;;;14.95;;
9729;SDS011;4904;49.152;11.004;2024-03-07T05:54:10;19.98;;;16.00;;
9729;SDS011;4904;49.152;11.004;2024-03-07T05:56:38;17.52;;;14.35;;
9729;SDS011;4904;49.152;11.004;2024-03-07T05:59:05;19.00;;;14.10;;
9729;SDS011;4904;49.152;11.004;2024-03-07T06:01:34;19.17;;;14.48;;
9729;SDS011;4904;49.152;11.004;2024-03-07T06:04:01;19.52;;;14.70;;
9729;SDS011;4904;49.152;11.004;2024-03-07T06:06:32;15.63;;;13.10;;
9729;SDS011;4904;49.152;11.004;2024-03-07T06:09:01;16.15;;;13.63;;
9729;SDS011;4904;49.152;11.004;2024-03-07T06:11:32;20.35;;;14.18;;
9729;SDS011;4904;49.152;11.004;2024-03-07T06:14:00;19.90;;;15.13;;
9729;SDS011;4904;49.152;11.004;2024-03-07T06:16:28;22.55;;;15.93;;
9729;SDS011;4904;49.152;11.004;2024-03-07T06:18:57;22.85;;;16.38;;
9729;SDS011;4904;49.152;11.004;2024-03-07T06:21:25;21.80;;;15.35;;
9729;SDS011;4904;49.152;11.004;2024-03-07T06:23:53;19.20;;;13.95;;
9729;SDS011;4904;49.152;11.004;2024-03-07T06:26:24;18.48;;;14.55;;
9729;SDS011;4904;49.152;11.004;2024-03-07T06:29:02;16.75;;;14.23;;
9729;SDS011;4904;49.152;11.004;2024-03-07T06:31:30;17.85;;;14.98;;
9729;SDS011;4904;49.152;11.004;2024-03-07T06:33:57;17.23;;;13.70;;
9729;SDS011;4904;49.152;11.004;2024-03-07T06:36:24;16.85;;;13.23;;
9729;SDS011;4904;49.152;11.004;2024-03-07T06:38:52;18.48;;;13.93;;
9729;SDS011;4904;49.152;11.004;2024-03-07T06:41:19;16.85;;;13.75;;
9729;SDS011;4904;49.152;11.004;2024-03-07T06:43:46;18.55;;;13.82;;
9729;SDS011;4904;49.152;11.004;2024-03-07T06:46:14;21.75;;;15.82;;
9729;SDS011;4904;49.152;11.004;2024-03-07T06:48:42;18.17;;;14.05;;
9729;SDS011;4904;49.152;11.004;2024-03-07T06:51:09;18.48;;;13.77;;
9729;SDS011;4904;49.152;11.004;2024-03-07T06:53:36;17.42;;;13.18;;
9729;SDS011;4904;49.152;11.004;2024-03-07T06:56:05;16.13;;;12.57;;
9729;SDS011;4904;49.152;11.004;2024-03-07T06:58:32;15.32;;;12.45;;
9729;SDS011;4904;49.152;11.004;2024-03-07T07:00:59;17.80;;;12.93;;
9729;SDS011;4904;49.152;11.004;2024-03-07T07:03:27;15.13;;;12.73;;
9729;SDS011;4904;49.152;11.004;2024-03-07T07:05:54;15.45;;;12.55;;
9729;SDS011;4904;49.152;11.004;2024-03-07T07:08:21;15.93;;;13.27;;
9729;SDS011;4904;49.152;11.004;2024-03-07T07:10:48;16.63;;;12.38;;
9729;SDS011;4904;49.152;11.004;2024-03-07T07:13:16;17.58;;;13.55;;
9729;SDS011;4904;49.152;11.004;2024-03-07T07:15:43;16.40;;;12.98;;
9729;SDS011;4904;49.152;11.004;2024-03-07T07:18:10;18.30;;;12.80;;
9729;SDS011;4904;49.152;11.004;2024-03-07T07:20:38;16.08;;;12.98;;
9729;SDS011;4904;49.152;11.004;2024-03-07T07:23:05;17.73;;;12.88;;
9729;SDS011;4904;49.152;11.004;2024-03-07T07:25:32;17.55;;;13.20;;
9729;SDS011;4904;49.152;11.004;2024-03-07T07:27:59;16.13;;;12.82;;
9729;SDS011;4904;49.152;11.004;2024-03-07T07:30:31;17.30;;;13.57;;
9729;SDS011;4904;49.152;11.004;2024-03-07T07:32:58;18.08;;;12.85;;
9729;SDS011;4904;49.152;11.004;2024-03-07T07:35:25;20.35;;;14.43;;
9729;SDS011;4904;49.152;11.004;2024-03-07T07:37:52;17.05;;;13.60;;
9729;SDS011;4904;49.152;11.004;2024-03-07T07:40:21;17.73;;;13.40;;
9729;SDS011;4904;49.152;11.004;2024-03-07T07:42:51;16.63;;;13.48;;
9729;SDS011;4904;49.152;11.004;2024-03-07T07:45:19;18.00;;;13.63;;
9729;SDS011;4904;49.152;11.004;2024-03-07T07:47:49;21.35;;;15.45;;
9729;SDS011;4904;49.152;11.004;2024-03-07T07:50:18;20.48;;;15.60;;
9729;SDS011;4904;49.152;11.004;2024-03-07T07:52:47;17.17;;;14.27;;
9729;SDS011;4904;49.152;11.004;2024-03-07T07:55:15;18.27;;;14.95;;
9729;SDS011;4904;49.152;11.004;2024-03-07T07:57:42;18.75;;;15.52;;
9729;SDS011;4904;49.152;11.004;2024-03-07T08:00:11;20.13;;;15.43;;
9729;SDS011;4904;49.152;11.004;2024-03-07T08:02:46;19.95;;;15.55;;
9729;SDS011;4904;49.152;11.004;2024-03-07T08:05:18;21.73;;;15.70;;
9729;SDS011;4904;49.152;11.004;2024-03-07T08:07:48;21.75;;;15.52;;
9729;SDS011;4904;49.152;11.004;2024-03-07T08:10:16;22.33;;;16.70;;
9729;SDS011;4904;49.152;11.004;2024-03-07T08:12:43;19.90;;;15.85;;
9729;SDS011;4904;49.152;11.004;2024-03-07T08:15:10;18.83;;;15.23;;
9729;SDS011;4904;49.152;11.004;2024-03-07T08:17:39;19.33;;;15.20;;
9729;SDS011;4904;49.152;11.004;2024-03-07T08:20:10;18.80;;;14.35;;
9729;SDS011;4904;49.152;11.004;2024-03-07T08:22:38;19.92;;;15.13;;
9729;SDS011;4904;49.152;11.004;2024-03-07T08:25:06;19.08;;;14.32;;
9729;SDS011;4904;49.152;11.004;2024-03-07T08:27:35;18.00;;;14.40;;
9729;SDS011;4904;49.152;11.004;2024-03-07T08:30:04;18.92;;;14.02;;
9729;SDS011;4904;49.152;11.004;2024-03-07T08:32:32;18.63;;;13.70;;
9729;SDS011;4904;49.152;11.004;2024-03-07T08:35:02;17.73;;;14.30;;
9729;SDS011;4904;49.152;11.004;2024-03-07T08:37:35;19.70;;;14.55;;
9729;SDS011;4904;49.152;11.004;2024-03-07T08:40:03;16.85;;;13.13;;
9729;SDS011;4904;49.152;11.004;2024-03-07T08:42:32;17.58;;;13.38;;
9729;SDS011;4904;49.152;11.004;2024-03-07T08:44:59;16.90;;;13.50;;
9729;SDS011;4904;49.152;11.004;2024-03-07T08:47:28;19.00;;;12.88;;
9729;SDS011;4904;49.152;11.004;2024-03-07T08:49:56;16.40;;;12.55;;
9729;SDS011;4904;49.152;11.004;2024-03-07T08:52:22;16.35;;;12.48;;
9729;SDS011;4904;49.152;11.004;2024-03-07T08:54:51;14.38;;;11.82;;
9729;SDS011;4904;49.152;11.004;2024-03-07T08:57:18;14.85;;;12.60;;
9729;SDS011;4904;49.152;11.004;2024-03-07T08:59:45;15.38;;;12.02;;
9729;SDS011;4904;49.152;11.004;2024-03-07T09:02:12;15.75;;;12.13;;
9729;SDS011;4904;49.152;11.004;2024-03-07T09:04:39;14.35;;;11.90;;
9729;SDS011;4904;49.152;11.004;2024-03-07T09:07:06;15.18;;;12.38;;
9729;SDS011;4904;49.152;11.004;2024-03-07T09:09:34;14.68;;;11.95;;
9729;SDS011;4904;49.152;11.004;2024-03-07T09:12:02;16.08;;;12.48;;
9729;SDS011;4904;49.152;11.004;2024-03-07T09:14:30;16.42;;;12.40;;
9729;SDS011;4904;49.152;11.004;2024-03-07T09:16:57;15.73;;;10.95;;
9729;SDS011;4904;49.152;11.004;2024-03-07T09:19:24;15.05;;;12.18;;
9729;SDS011;4904;49.152;11.004;2024-03-07T09:21:51;20.58;;;14.93;;
9729;SDS011;4904;49.152;11.004;2024-03-07T09:24:18;15.65;;;12.38;;
9729;SDS011;4904;49.152;11.004;2024-03-07T09:26:47;14.93;;;11.70;;
9729;SDS011;4904;49.152;11.004;2024-03-07T09:29:16;14.95;;;11.13;;
9729;SDS011;4904;49.152;11.004;2024-03-07T09:31:43;14.50;;;11.57;;
9729;SDS011;4904;49.152;11.004;2024-03-07T09:34:10;14.13;;;11.30;;
9729;SDS011;4904;49.152;11.004;2024-03-07T09:36:38;13.32;;;10.65;;
9729;SDS011;4904;49.152;11.004;2024-03-07T09:39:05;14.13;;;11.85;;
9729;SDS011;4904;49.152;11.004;2024-03-07T09:41:33;14.10;;;11.05;;
9729;SDS011;4904;49.152;11.004;2024-03-07T09:44:00;13.32;;;10.60;;
9729;SDS011;4904;49.152;11.004;2024-03-07T09:46:29;13.27;;;11.32;;
9729;SDS011;4904;49.152;11.004;2024-03-07T09:48:57;16.13;;;11.90;;
9729;SDS011;4904;49.152;11.004;2024-03-07T09:51:24;13.98;;;11.77;;
9729;SDS011;4904;49.152;11.004;2024-03-07T09:53:53;14.02;;;11.18;;
9729;SDS011;4904;49.152;11.004;2024-03-07T09:56:25;14.25;;;11.88;;
9729;SDS011;4904;49.152;11.004;2024-03-07T09:58:56;15.43;;;12.77;;
9729;SDS011;4904;49.152;11.004;2024-03-07T10:01:25;13.50;;;12.02;;
9729;SDS011;4904;49.152;11.004;2024-03-07T10:03:58;14.88;;;11.75;;
9729;SDS011;4904;49.152;11.004;2024-03-07T10:06:30;14.55;;;12.32;;
9729;SDS011;4904;49.152;11.004;2024-03-07T10:08:58;17.25;;;13.05;;
9729;SDS011;4904;49.152;11.004;2024-03-07T10:11:25;15.35;;;13.35;;
9729;SDS011;4904;49.152;11.004;2024-03-07T10:13:53;16.63;;;12.80;;
9729;SDS011;4904;49.152;11.004;2024-03-07T10:16:20;15.35;;;13.25;;
9729;SDS011;4904;49.152;11.004;2024-03-07T10:18:48;17.05;;;13.23;;
9729;SDS011;4904;49.152;11.004;2024-03-07T10:21:18;16.92;;;13.02;;
9729;SDS011;4904;49.152;11.004;2024-03-07T10:23:45;21.38;;;13.90;;
9729;SDS011;4904;49.152;11.004;2024-03-07T10:26:12;17.48;;;13.63;;
9729;SDS011;4904;49.152;11.004;2024-03-07T10:28:40;18.80;;;13.85;;
9729;SDS011;4904;49.152;11.004;2024-03-07T10:31:06;17.50;;;13.55;;
9729;SDS011;4904;49.152;11.004;2024-03-07T10:33:36;16.58;;;13.75;;
9729;SDS011;4904;49.152;11.004;2024-03-07T10:36:04;17.17;;;13.50;;
9729;SDS011;4904;49.152;11.004;2024-03-07T10:38:37;15.68;;;12.93;;
9729;SDS011;4904;49.152;11.004;2024-03-07T10:41:04;17.88;;;14.20;;
9729;SDS011;4904;49.152;11.004;2024-03-07T10:43:33;16.98;;;14.02;;
9729;SDS011;4904;49.152;11.004;2024-03-07T10:46:07;18.45;;;13.90;;
9729;SDS011;4904;49.152;11.004;2024-03-07T10:48:37;18.35;;;13.70;;
9729;SDS011;4904;49.152;11.004;2024-03-07T10:51:06;18.48;;;13.52;;
9729;SDS011;4904;49.152;11.004;2024-03-07T10:53:49;18.25;;;13.73;;
9729;SDS011;4904;49.152;11.004;2024-03-07T10:56:29;16.95;;;13.63;;
9729;SDS011;4904;49.152;11.004;2024-03-07T10:59:04;20.40;;;13.35;;
9729;SDS011;4904;49.152;11.004;2024-03-07T11:01:39;19.38;;;13.50;;
9729;SDS011;4904;49.152;11.004;2024-03-07T11:04:14;14.75;;;12.25;;
9729;SDS011;4904;49.152;11.004;2024-03-07T11:06:42;17.10;;;13.23;;
9729;SDS011;4904;49.152;11.004;2024-03-07T11:09:11;18.00;;;13.23;;
9729;SDS011;4904;49.152;11.004;2024-03-07T11:11:39;17.08;;;13.60;;
9729;SDS011;4904;49.152;11.004;2024-03-07T11:14:07;18.33;;;13.02;;
9729;SDS011;4904;49.152;11.004;2024-03-07T11:16:37;17.65;;;12.45;;
9729;SDS011;4904;49.152;11.004;2024-03-07T11:19:18;16.35;;;13.25;;
9729;SDS011;4904;49.152;11.004;2024-03-07T11:21:56;15.10;;;12.23;;
9729;SDS011;4904;49.152;11.004;2024-03-07T11:24:26;17.42;;;13.65;;
9729;SDS011;4904;49.152;11.004;2024-03-07T11:26:54;16.33;;;13.73;;
9729;SDS011;4904;49.152;11.004;2024-03-07T11:29:42;16.17;;;13.13;;
9729;SDS011;4904;49.152;11.004;2024-03-07T11:32:13;14.65;;;12.20;;
9729;SDS011;4904;49.152;11.004;2024-03-07T11:34:42;16.30;;;13.18;;
9729;SDS011;4904;49.152;11.004;2024-03-07T11:37:11;17.83;;;13.00;;
9729;SDS011;4904;49.152;11.004;2024-03-07T11:39:47;15.35;;;12.80;;
9729;SDS011;4904;49.152;11.004;2024-03-07T11:42:19;13.93;;;12.30;;
9729;SDS011;4904;49.152;11.004;2024-03-07T11:44:49;14.57;;;12.68;;
9729;SDS011;4904;49.152;11.004;2024-03-07T11:47:19;15.52;;;11.93;;
9729;SDS011;4904;49.152;11.004;2024-03-07T11:49:46;16.85;;;12.60;;
9729;SDS011;4904;49.152;11.004;2024-03-07T11:52:14;15.43;;;12.73;;
9729;SDS011;4904;49.152;11.004;2024-03-07T11:54:42;15.65;;;12.68;;
9729;SDS011;4904;49.152;11.004;2024-03-07T11:57:12;15.82;;;13.45;;
9729;SDS011;4904;49.152;11.004;2024-03-07T11:59:41;15.73;;;12.93;;
9729;SDS011;4904;49.152;11.004;2024-03-07T12:02:13;15.55;;;12.85;;
9729;SDS011;4904;49.152;11.004;2024-03-07T12:04:43;17.95;;;13.38;;
9729;SDS011;4904;49.152;11.004;2024-03-07T12:07:11;14.20;;;12.07;;
9729;SDS011;4904;49.152;11.004;2024-03-07T12:09:42;17.25;;;13.48;;
9729;SDS011;4904;49.152;11.004;2024-03-07T12:12:10;16.73;;;13.00;;
9729;SDS011;4904;49.152;11.004;2024-03-07T12:14:38;18.20;;;13.43;;
9729;SDS011;4904;49.152;11.004;2024-03-07T12:17:05;15.60;;;12.55;;
9729;SDS011;4904;49.152;11.004;2024-03-07T12:19:33;16.65;;;13.35;;
9729;SDS011;4904;49.152;11.004;2024-03-07T12:22:01;18.40;;;14.00;;
9729;SDS011;4904;49.152;11.004;2024-03-07T12:24:28;13.68;;;12.05;;
9729;SDS011;4904;49.152;11.004;2024-03-07T12:27:05;14.27;;;12.68;;
9729;SDS011;4904;49.152;11.004;2024-03-07T12:29:34;15.95;;;13.02;;
9729;SDS011;4904;49.152;11.004;2024-03-07T12:32:02;16.92;;;14.32;;
9729;SDS011;4904;49.152;11.004;2024-03-07T12:34:31;15.63;;;13.10;;
9729;SDS011;4904;49.152;11.004;2024-03-07T12:37:02;18.95;;;14.02;;
9729;SDS011;4904;49.152;11.004;2024-03-07T12:39:31;24.23;;;18.70;;
9729;SDS011;4904;49.152;11.004;2024-03-07T12:42:00;19.77;;;15.10;;
9729;SDS011;4904;49.152;11.004;2024-03-07T12:44:38;15.05;;;12.90;;
9729;SDS011;4904;49.152;11.004;2024-03-07T12:47:08;16.17;;;13.05;;
9729;SDS011;4904;49.152;11.004;2024-03-07T12:49:37;14.70;;;12.82;;
9729;SDS011;4904;49.152;11.004;2024-03-07T12:52:04;20.02;;;15.55;;
9729;SDS011;4904;49.152;11.004;2024-03-07T12:54:33;15.23;;;12.73;;
9729;SDS011;4904;49.152;11.004;2024-03-07T12:57:00;14.10;;;12.13;;
9729;SDS011;4904;49.152;11.004;2024-03-07T12:59:30;12.85;;;11.45;;
9729;SDS011;4904;49.152;11.004;2024-03-07T13:01:57;14.27;;;11.90;;
9729;SDS011;4904;49.152;11.004;2024-03-07T13:04:24;12.82;;;10.63;;
9729;SDS011;4904;49.152;11.004;2024-03-07T13:06:53;15.23;;;11.55;;
9729;SDS011;4904;49.152;11.004;2024-03-07T13:09:24;16.20;;;14.48;;
9729;SDS011;4904;49.152;11.004;2024-03-07T13:11:53;14.25;;;12.18;;
9729;SDS011;4904;49.152;11.004;2024-03-07T13:14:20;15.85;;;13.27;;
9729;SDS011;4904;49.152;11.004;2024-03-07T13:16:47;14.85;;;11.90;;
9729;SDS011;4904;49.152;11.004;2024-03-07T13:19:15;15.52;;;11.32;;
9729;SDS011;4904;49.152;11.004;2024-03-07T13:21:45;14.32;;;11.38;;
9729;SDS011;4904;49.152;11.004;2024-03-07T13:24:14;15.63;;;11.82;;
9729;SDS011;4904;49.152;11.004;2024-03-07T13:26:42;12.65;;;11.30;;
9729;SDS011;4904;49.152;11.004;2024-03-07T13:29:09;15.20;;;11.80;;
9729;SDS011;4904;49.152;11.004;2024-03-07T13:31:37;13.18;;;11.48;;
9729;SDS011;4904;49.152;11.004;2024-03-07T13:34:07;13.93;;;12.32;;
9729;SDS011;4904;49.152;11.004;2024-03-07T13:36:38;13.77;;;11.48;;
9729;SDS011;4904;49.152;11.004;2024-03-07T13:39:06;14.25;;;11.73;;
9729;SDS011;4904;49.152;11.004;2024-03-07T13:41:37;16.20;;;12.93;;
9729;SDS011;4904;49.152;11.004;2024-03-07T13:44:05;18.05;;;13.43;;
9729;SDS011;4904;49.152;11.004;2024-03-07T13:46:32;16.00;;;12.90;;
9729;SDS011;4904;49.152;11.004;2024-03-07T13:48:59;13.43;;;11.20;;
9729;SDS011;4904;49.152;11.004;2024-03-07T13:51:38;13.35;;;11.38;;
9729;SDS011;4904;49.152;11.004;2024-03-07T13:54:14;13.77;;;11.13;;
9729;SDS011;4904;49.152;11.004;2024-03-07T13:57:03;11.77;;;10.13;;
9729;SDS011;4904;49.152;11.004;2024-03-07T13:59:57;13.63;;;10.18;;
9729;SDS011;4904;49.152;11.004;2024-03-07T14:02:57;12.82;;;10.27;;
9729;SDS011;4904;49.152;11.004;2024-03-07T14:05:59;11.40;;;9.85;;
9729;SDS011;4904;49.152;11.004;2024-03-07T14:11:41;13.57;;;10.68;;
9729;SDS011;4904;49.152;11.004;2024-03-07T14:15:03;13.93;;;11.55;;
9729;SDS011;4904;49.152;11.004;2024-03-07T14:18:16;12.02;;;10.48;;
9729;SDS011;4904;49.152;11.004;2024-03-07T14:21:26;13.82;;;10.80;;
9729;SDS011;4904;49.152;11.004;2024-03-07T14:27:27;14.40;;;11.75;;
9729;SDS011;4904;49.152;11.004;2024-03-07T14:30:13;12.45;;;10.85;;
9729;SDS011;4904;49.152;11.004;2024-03-07T14:32:49;12.43;;;10.45;;
9729;SDS011;4904;49.152;11.004;2024-03-07T14:35:22;12.32;;;10.52;;
9729;SDS011;4904;49.152;11.004;2024-03-07T14:37:55;11.55;;;9.85;;
9729;SDS011;4904;49.152;11.004;2024-03-07T14:40:32;13.15;;;10.50;;
9729;SDS011;4904;49.152;11.004;2024-03-07T14:43:01;13.27;;;10.82;;
9729;SDS011;4904;49.152;11.004;2024-03-07T14:45:32;12.57;;;10.40;;
9729;SDS011;4904;49.152;11.004;2024-03-07T14:48:03;13.55;;;10.88;;
9729;SDS011;4904;49.152;11.004;2024-03-07T14:50:33;16.23;;;11.73;;
9729;SDS011;4904;49.152;11.004;2024-03-07T14:53:00;15.52;;;12.13;;
9729;SDS011;4904;49.152;11.004;2024-03-07T14:55:28;12.48;;;11.15;;